createdAt,value
2022-09-15T00:01:06.878Z,12.82
2022-09-15T00:03:34.354Z,13.18
2022-09-15T00:06:01.253Z,13.43
2022-09-15T00:08:30.389Z,13.52
2022-09-15T00:11:08.829Z,12.23
2022-09-15T00:13:37.307Z,13.85
2022-09-15T00:16:05.764Z,13.88
2022-09-15T00:18:35.633Z,14.13
2022-09-15T00:21:14.511Z,13.30
2022-09-15T00:23:41.465Z,12.45
2022-09-15T00:26:10.820Z,13.10
2022-09-15T00:28:39.400Z,12.32
2022-09-15T00:31:09.350Z,12.43
2022-09-15T00:33:36.873Z,12.98
2022-09-15T00:36:06.545Z,12.10
2022-09-15T00:38:34.575Z,11.90
2022-09-15T00:41:02.521Z,12.55
2022-09-15T00:43:57.276Z,12.07
2022-09-15T00:46:28.338Z,12.68
2022-09-15T00:49:03.507Z,12.32
2022-09-15T00:51:50.587Z,12.15
2022-09-15T00:54:36.200Z,13.20
2022-09-15T00:57:08.854Z,13.20
2022-09-15T00:59:38.377Z,14.60
2022-09-15T01:02:19.282Z,13.20
2022-09-15T01:04:46.614Z,14.38
2022-09-15T01:07:16.921Z,13.57
2022-09-15T01:09:51.118Z,14.00
2022-09-15T01:12:18.789Z,14.18
2022-09-15T01:14:45.645Z,16.92
2022-09-15T01:17:29.772Z,14.63
2022-09-15T01:20:17.179Z,16.38
2022-09-15T01:22:53.071Z,16.20
2022-09-15T01:25:32.024Z,15.77
2022-09-15T01:28:30.317Z,16.10
2022-09-15T01:31:05.722Z,15.77
2022-09-15T01:34:03.164Z,15.40
2022-09-15T01:36:42.947Z,15.00
2022-09-15T01:39:18.002Z,18.25
2022-09-15T01:41:52.200Z,15.82
2022-09-15T01:44:24.553Z,14.77
2022-09-15T01:47:04.016Z,15.13
2022-09-15T01:49:36.264Z,13.95
2022-09-15T01:52:03.449Z,17.13
2022-09-15T01:54:35.908Z,15.90
2022-09-15T01:57:03.248Z,14.05
2022-09-15T01:59:31.329Z,16.30
2022-09-15T02:02:12.850Z,16.50
2022-09-15T02:04:51.047Z,15.98
2022-09-15T02:07:27.288Z,16.83
2022-09-15T02:10:02.828Z,15.70
2022-09-15T02:12:36.963Z,17.35
2022-09-15T02:15:10.409Z,17.00
2022-09-15T02:17:42.987Z,16.95
2022-09-15T02:20:41.729Z,16.73
2022-09-15T02:23:17.163Z,16.98
2022-09-15T02:25:51.656Z,18.33
2022-09-15T02:28:24.013Z,18.92
2022-09-15T02:30:54.276Z,18.88
2022-09-15T02:33:24.415Z,18.05
2022-09-15T02:35:52.779Z,18.35
2022-09-15T02:38:20.332Z,18.63
2022-09-15T02:40:47.984Z,19.90
2022-09-15T02:43:17.062Z,19.55
2022-09-15T02:45:43.974Z,19.15
2022-09-15T02:48:11.340Z,21.02
2022-09-15T02:50:39.956Z,20.02
2022-09-15T02:53:07.109Z,19.20
2022-09-15T02:55:33.993Z,19.98
2022-09-15T02:58:00.991Z,17.63
2022-09-15T03:00:29.350Z,18.90
2022-09-15T03:02:56.323Z,18.77
2022-09-15T03:05:26.583Z,18.42
2022-09-15T03:07:54.401Z,19.25
2022-09-15T03:10:22.467Z,19.85
2022-09-15T03:12:52.003Z,19.13
2022-09-15T03:15:22.308Z,19.25
2022-09-15T03:17:50.117Z,20.33
2022-09-15T03:20:23.623Z,19.60
2022-09-15T03:25:18.008Z,17.42
2022-09-15T03:27:44.833Z,16.83
2022-09-15T03:30:13.181Z,17.83
2022-09-15T03:32:40.266Z,16.60
2022-09-15T03:35:07.550Z,16.38
2022-09-15T03:37:34.928Z,16.88
2022-09-15T03:40:03.735Z,17.33
2022-09-15T03:42:30.791Z,17.13
2022-09-15T03:44:57.675Z,16.17
2022-09-15T03:47:24.617Z,16.88
2022-09-15T03:49:52.439Z,16.17
2022-09-15T03:52:19.285Z,17.65
2022-09-15T03:54:47.948Z,17.77
2022-09-15T03:57:14.859Z,17.60
2022-09-15T03:59:42.718Z,18.80
2022-09-15T04:02:09.614Z,19.45
2022-09-15T04:04:36.764Z,18.73
2022-09-15T04:07:03.642Z,18.42
2022-09-15T04:09:31.490Z,18.98
2022-09-15T04:11:58.451Z,17.95
2022-09-15T04:14:25.308Z,19.42
2022-09-15T04:16:52.412Z,21.23
2022-09-15T04:19:19.221Z,19.50
2022-09-15T04:21:47.396Z,19.67
2022-09-15T04:24:14.284Z,18.92
2022-09-15T04:26:41.185Z,19.63
2022-09-15T04:29:13.724Z,18.98
2022-09-15T04:31:40.712Z,18.83
2022-09-15T04:34:07.891Z,21.02
2022-09-15T04:36:34.842Z,18.88
2022-09-15T04:39:01.864Z,19.50
2022-09-15T04:41:29.248Z,18.95
2022-09-15T04:43:56.178Z,20.63
2022-09-15T04:46:23.055Z,20.15
2022-09-15T04:48:49.971Z,18.75
2022-09-15T04:51:19.608Z,18.52
2022-09-15T04:53:47.131Z,18.45
2022-09-15T04:56:22.769Z,20.70
2022-09-15T04:58:53.023Z,21.02
2022-09-15T05:01:26.317Z,19.90
2022-09-15T05:03:53.586Z,19.88
2022-09-15T05:06:27.697Z,18.00
2022-09-15T05:08:57.248Z,18.60
2022-09-15T05:11:25.175Z,18.63
2022-09-15T05:13:52.524Z,17.73
2022-09-15T05:16:22.181Z,17.48
2022-09-15T05:18:51.673Z,15.80
2022-09-15T05:21:20.572Z,16.60
2022-09-15T05:23:48.359Z,15.55
2022-09-15T05:26:18.332Z,16.17
2022-09-15T05:28:45.774Z,15.93
2022-09-15T05:31:18.559Z,16.38
2022-09-15T05:33:46.963Z,16.10
2022-09-15T05:36:15.260Z,16.17
2022-09-15T05:38:43.960Z,17.05
2022-09-15T05:41:17.002Z,15.48
2022-09-15T05:43:45.378Z,16.60
2022-09-15T05:46:12.900Z,15.48
2022-09-15T05:48:39.950Z,15.80
2022-09-15T05:51:07.804Z,16.13
2022-09-15T05:53:35.603Z,15.27
2022-09-15T05:56:09.580Z,16.75
2022-09-15T05:58:38.330Z,15.18
2022-09-15T06:01:07.962Z,15.23
2022-09-15T06:03:35.464Z,14.35
2022-09-15T06:06:04.288Z,14.70
2022-09-15T06:08:43.719Z,15.60
2022-09-15T06:11:17.470Z,14.50
2022-09-15T06:13:45.584Z,16.75
2022-09-15T06:16:20.551Z,15.68
2022-09-15T06:18:49.331Z,15.00
2022-09-15T06:21:17.519Z,14.88
2022-09-15T06:23:49.908Z,14.23
2022-09-15T06:26:19.226Z,13.93
2022-09-15T06:28:56.763Z,13.90
2022-09-15T06:31:24.679Z,13.05
2022-09-15T06:33:53.322Z,14.52
2022-09-15T06:36:22.753Z,14.27
2022-09-15T06:38:51.692Z,13.82
2022-09-15T06:41:18.596Z,14.50
2022-09-15T06:43:46.673Z,14.35
2022-09-15T06:46:17.887Z,14.27
2022-09-15T06:48:48.182Z,13.77
2022-09-15T06:51:18.247Z,13.50
2022-09-15T06:53:45.833Z,12.50
2022-09-15T06:56:23.593Z,12.55
2022-09-15T07:02:38.797Z,12.38
2022-09-15T07:05:05.891Z,12.13
2022-09-15T07:07:32.737Z,13.20
2022-09-15T07:10:00.908Z,12.00
2022-09-15T07:12:27.784Z,13.25
2022-09-15T07:14:54.860Z,11.93
2022-09-15T07:17:21.661Z,13.02
2022-09-15T07:20:07.845Z,13.82
2022-09-15T07:22:34.873Z,13.70
2022-09-15T07:25:01.759Z,13.05
2022-09-15T07:27:31.638Z,13.23
2022-09-15T07:31:10.528Z,12.05
2022-09-15T07:33:37.630Z,12.32
2022-09-15T07:36:06.762Z,12.20
2022-09-15T07:38:34.816Z,12.93
2022-09-15T07:41:10.316Z,13.13
2022-09-15T07:43:37.845Z,14.45
2022-09-15T07:46:05.194Z,13.95
2022-09-15T07:48:33.216Z,14.20
2022-09-15T07:51:00.214Z,13.70
2022-09-15T07:53:30.549Z,13.23
2022-09-15T07:55:57.620Z,12.60
2022-09-15T07:58:25.081Z,12.88
2022-09-15T08:00:52.233Z,12.30
2022-09-15T08:03:19.183Z,12.50
2022-09-15T08:05:46.307Z,13.13
2022-09-15T08:08:13.384Z,13.20
2022-09-15T08:10:41.386Z,12.05
2022-09-15T08:13:08.581Z,13.15
2022-09-15T08:15:37.615Z,13.30
2022-09-15T08:18:05.720Z,13.27
2022-09-15T08:20:33.695Z,11.93
2022-09-15T08:23:00.712Z,11.93
2022-09-15T08:25:27.587Z,11.77
2022-09-15T08:27:56.269Z,11.73
2022-09-15T08:30:23.714Z,12.65
2022-09-15T08:32:51.222Z,11.57
2022-09-15T08:35:18.918Z,12.20
2022-09-15T08:37:47.192Z,11.65
2022-09-15T08:40:20.643Z,11.68
2022-09-15T08:45:27.778Z,10.93
2022-09-15T08:47:59.987Z,12.90
2022-09-15T08:50:34.322Z,12.05
2022-09-15T08:53:25.634Z,12.82
2022-09-15T08:55:59.560Z,12.02
2022-09-15T08:58:30.343Z,12.02
2022-09-15T09:01:19.487Z,11.65
2022-09-15T09:04:14.497Z,9.73
2022-09-15T09:06:46.448Z,11.90
2022-09-15T09:09:39.088Z,11.88
2022-09-15T09:12:14.264Z,14.27
2022-09-15T09:15:05.897Z,12.50
2022-09-15T09:17:35.457Z,11.30
2022-09-15T09:20:43.313Z,11.95
2022-09-15T09:23:15.261Z,10.55
2022-09-15T09:25:43.497Z,12.13
2022-09-15T09:29:04.350Z,10.85
2022-09-15T09:31:31.407Z,9.18
2022-09-15T09:34:12.074Z,8.85
2022-09-15T09:36:39.027Z,9.55
2022-09-15T09:39:14.045Z,8.60
2022-09-15T09:41:42.540Z,10.38
2022-09-15T09:44:15.170Z,10.25
2022-09-15T09:46:44.150Z,10.90
2022-09-15T09:49:16.855Z,8.90
2022-09-15T09:52:04.800Z,9.43
2022-09-15T09:54:33.911Z,9.70
2022-09-15T09:57:29.349Z,9.75
2022-09-15T09:59:56.593Z,14.63
2022-09-15T10:02:27.484Z,9.88
2022-09-15T10:05:12.429Z,9.60
2022-09-15T10:07:43.860Z,8.77
2022-09-15T10:10:21.894Z,10.35
2022-09-15T10:12:50.721Z,9.68
2022-09-15T10:15:26.127Z,8.95
2022-09-15T10:17:55.195Z,8.15
2022-09-15T10:20:25.849Z,8.05
2022-09-15T10:23:02.938Z,6.82
2022-09-15T10:25:55.028Z,9.07
2022-09-15T10:28:24.086Z,9.00
2022-09-15T10:31:07.002Z,8.88
2022-09-15T10:33:36.708Z,6.82
2022-09-15T10:36:12.981Z,9.10
2022-09-15T10:38:46.811Z,7.97
2022-09-15T10:41:35.031Z,8.45
2022-09-15T10:44:23.008Z,8.43
2022-09-15T10:47:02.167Z,7.15
2022-09-15T10:49:38.208Z,8.13
2022-09-15T10:52:27.988Z,6.75
2022-09-15T10:55:13.339Z,6.40
2022-09-15T10:58:08.977Z,7.38
2022-09-15T11:01:04.756Z,6.53
2022-09-15T11:03:46.897Z,7.80
2022-09-15T11:06:40.263Z,6.88
2022-09-15T11:09:17.705Z,6.93
2022-09-15T11:11:56.240Z,6.35
2022-09-15T11:14:44.128Z,6.78
2022-09-15T11:17:34.188Z,7.03
2022-09-15T11:20:36.069Z,6.13
2022-09-15T11:23:27.523Z,7.55
2022-09-15T11:26:14.557Z,6.35
2022-09-15T11:29:03.444Z,6.40
2022-09-15T11:31:36.712Z,6.68
2022-09-15T11:34:13.559Z,6.53
2022-09-15T11:36:52.287Z,6.60
2022-09-15T11:39:24.066Z,6.63
2022-09-15T11:41:56.523Z,6.70
2022-09-15T11:44:26.810Z,6.55
2022-09-15T11:47:24.498Z,7.97
2022-09-15T11:50:11.275Z,7.13
2022-09-15T11:53:02.223Z,6.47
2022-09-15T11:55:41.583Z,6.38
2022-09-15T11:58:33.358Z,6.22
2022-09-15T12:01:14.941Z,7.05
2022-09-15T12:03:59.581Z,6.30
2022-09-15T12:06:45.736Z,6.88
2022-09-15T12:09:16.642Z,6.72
2022-09-15T12:11:50.892Z,8.55
2022-09-15T12:14:22.461Z,8.35
2022-09-15T12:16:49.973Z,7.38
2022-09-15T12:19:43.777Z,7.50
2022-09-15T12:22:38.637Z,7.15
2022-09-15T12:25:17.827Z,7.53
2022-09-15T12:28:05.246Z,6.90
2022-09-15T12:30:41.574Z,6.72
2022-09-15T12:33:42.695Z,7.40
2022-09-15T12:36:31.299Z,6.40
2022-09-15T12:39:37.482Z,7.30
2022-09-15T12:42:10.851Z,7.50
2022-09-15T12:45:19.080Z,6.75
2022-09-15T12:47:57.053Z,7.22
2022-09-15T12:50:38.036Z,6.65
2022-09-15T12:53:28.488Z,6.57
2022-09-15T12:56:07.690Z,7.78
2022-09-15T12:58:39.599Z,6.65
2022-09-15T13:01:19.127Z,5.78
2022-09-15T13:03:46.663Z,7.25
2022-09-15T13:06:27.180Z,7.03
2022-09-15T13:09:33.013Z,7.18
2022-09-15T13:12:02.947Z,7.00
2022-09-15T13:14:34.274Z,6.47
2022-09-15T13:17:17.250Z,6.55
2022-09-15T13:20:08.596Z,6.20
2022-09-15T13:22:49.282Z,6.95
2022-09-15T13:25:21.556Z,7.00
2022-09-15T13:28:11.393Z,6.97
2022-09-15T13:31:26.712Z,8.57
2022-09-15T13:40:50.471Z,8.25
2022-09-15T13:43:30.196Z,7.90
2022-09-15T13:46:56.743Z,8.40
2022-09-15T13:50:02.780Z,7.20
2022-09-15T13:53:05.039Z,8.50
2022-09-15T13:55:35.010Z,7.43
2022-09-15T14:01:02.892Z,7.47
2022-09-15T14:04:00.720Z,8.05
2022-09-15T14:06:34.632Z,6.75
2022-09-15T14:09:08.119Z,8.65
2022-09-15T14:11:36.767Z,8.02
2022-09-15T14:14:09.591Z,7.95
2022-09-15T14:16:39.243Z,8.60
2022-09-15T14:19:26.369Z,8.55
2022-09-15T14:21:58.351Z,10.50
2022-09-15T14:24:32.389Z,9.27
2022-09-15T14:27:07.528Z,10.48
2022-09-15T14:29:42.718Z,10.07
2022-09-15T14:32:15.008Z,9.13
2022-09-15T14:34:43.650Z,9.55
2022-09-15T14:37:29.369Z,11.55
2022-09-15T14:40:00.430Z,9.68
2022-09-15T14:42:32.305Z,9.05
2022-09-15T14:48:00.347Z,7.50
2022-09-15T14:50:32.518Z,6.93
2022-09-15T14:55:40.140Z,5.88
2022-09-15T14:58:18.661Z,7.15
2022-09-15T15:01:00.220Z,7.78
2022-09-15T15:03:49.931Z,7.53
2022-09-15T15:06:30.176Z,6.95
2022-09-15T15:09:03.773Z,6.70
2022-09-15T15:11:33.273Z,7.35
2022-09-15T15:14:00.519Z,6.93
2022-09-15T15:16:30.697Z,7.93
2022-09-15T15:18:58.240Z,7.47
2022-09-15T15:21:51.631Z,7.80
2022-09-15T15:24:22.226Z,9.02
2022-09-15T15:26:50.289Z,8.70
2022-09-15T15:29:44.477Z,9.02
2022-09-15T15:32:23.082Z,8.10
2022-09-15T15:34:51.527Z,8.27
2022-09-15T15:37:33.200Z,9.02
2022-09-15T15:40:04.477Z,8.13
2022-09-15T15:42:31.728Z,7.38
2022-09-15T15:45:24.730Z,9.10
2022-09-15T15:47:52.068Z,8.73
2022-09-15T15:50:25.321Z,8.73
2022-09-15T15:52:52.924Z,9.73
2022-09-15T15:55:25.333Z,7.90
2022-09-15T15:57:54.938Z,9.35
2022-09-15T16:00:33.430Z,9.90
2022-09-15T16:03:00.378Z,8.18
2022-09-15T16:05:29.343Z,8.27
2022-09-15T16:07:59.482Z,7.97
2022-09-15T16:10:37.004Z,9.02
2022-09-15T16:13:03.993Z,9.80
2022-09-15T16:15:30.847Z,11.32
2022-09-15T16:17:57.726Z,8.43
2022-09-15T16:20:25.694Z,9.07
2022-09-15T16:22:52.681Z,8.95
2022-09-15T16:25:31.252Z,8.80
2022-09-15T16:27:58.297Z,9.77
2022-09-15T16:30:26.116Z,10.32
2022-09-15T16:32:53.010Z,8.73
2022-09-15T16:35:43.090Z,9.82
2022-09-15T16:38:10.314Z,9.68
2022-09-15T16:40:37.583Z,9.80
2022-09-15T16:43:09.468Z,9.82
2022-09-15T16:45:40.579Z,8.50
2022-09-15T16:48:09.190Z,10.38
2022-09-15T16:50:40.193Z,7.82
2022-09-15T16:53:18.106Z,8.32
2022-09-15T16:55:50.249Z,9.93
2022-09-15T16:58:19.434Z,9.25
2022-09-15T17:00:49.635Z,9.02
2022-09-15T17:03:18.851Z,9.25
2022-09-15T17:05:48.804Z,8.27
2022-09-15T17:08:18.734Z,9.10
2022-09-15T17:10:46.624Z,9.95
2022-09-15T17:13:17.669Z,9.13
2022-09-15T17:15:48.921Z,10.20
2022-09-15T17:18:16.365Z,8.52
2022-09-15T17:20:49.598Z,10.43
2022-09-15T17:25:51.388Z,9.88
2022-09-15T17:30:51.466Z,8.23
2022-09-15T17:33:20.470Z,8.80
2022-09-15T17:35:48.347Z,8.07
2022-09-15T17:38:16.103Z,8.52
2022-09-15T17:41:13.852Z,8.63
2022-09-15T17:43:40.807Z,8.50
2022-09-15T17:46:08.860Z,9.55
2022-09-15T17:49:14.938Z,7.30
2022-09-15T17:51:41.831Z,7.03
2022-09-15T17:54:11.141Z,9.70
2022-09-15T17:56:38.164Z,9.82
2022-09-15T17:59:06.089Z,9.05
2022-09-15T18:01:32.949Z,7.97
2022-09-15T18:03:59.899Z,8.45
2022-09-15T18:06:27.372Z,8.07
2022-09-15T18:08:59.311Z,8.05
2022-09-15T18:11:28.866Z,8.97
2022-09-15T18:13:57.389Z,7.93
2022-09-15T18:16:24.259Z,7.22
2022-09-15T18:18:52.251Z,7.07
2022-09-15T18:21:27.007Z,7.10
2022-09-15T18:23:54.771Z,9.02
2022-09-15T18:26:26.281Z,8.85
2022-09-15T18:29:14.970Z,7.47
2022-09-15T18:31:41.892Z,7.60
2022-09-15T18:34:10.329Z,7.72
2022-09-15T18:36:37.154Z,7.45
2022-09-15T18:39:07.215Z,7.88
2022-09-15T18:41:37.641Z,8.45
2022-09-15T18:44:04.803Z,7.30
2022-09-15T18:46:31.802Z,6.70
2022-09-15T18:49:02.798Z,7.80
2022-09-15T18:51:50.539Z,6.90
2022-09-15T18:54:16.775Z,7.70
2022-09-15T18:56:43.584Z,7.43
2022-09-15T18:59:10.912Z,6.40
2022-09-15T19:01:37.899Z,7.13
2022-09-15T19:04:04.800Z,6.78
2022-09-15T19:06:31.799Z,7.22
2022-09-15T19:08:59.125Z,6.85
2022-09-15T19:11:28.842Z,7.93
2022-09-15T19:13:56.154Z,7.32
2022-09-15T19:16:34.561Z,7.35
2022-09-15T19:19:10.473Z,7.38
2022-09-15T19:21:37.401Z,7.60
2022-09-15T19:24:04.376Z,7.72
2022-09-15T19:26:31.308Z,7.72
2022-09-15T19:29:26.387Z,8.55
2022-09-15T19:31:53.708Z,7.45
2022-09-15T19:34:21.055Z,7.55
2022-09-15T19:36:47.910Z,9.10
2022-09-15T19:39:15.117Z,7.72
2022-09-15T19:41:42.256Z,7.65
2022-09-15T19:44:10.753Z,7.97
2022-09-15T19:46:38.551Z,8.15
2022-09-15T19:49:45.138Z,8.65
2022-09-15T19:52:13.189Z,8.70
2022-09-15T19:54:40.333Z,7.40
2022-09-15T19:57:07.553Z,7.13
2022-09-15T19:59:35.906Z,8.38
2022-09-15T20:02:02.896Z,7.13
2022-09-15T20:04:30.193Z,7.82
2022-09-15T20:06:57.123Z,7.80
2022-09-15T20:09:53.414Z,7.05
2022-09-15T20:14:48.224Z,7.40
2022-09-15T20:17:15.204Z,8.63
2022-09-15T20:19:42.300Z,7.60
2022-09-15T20:22:09.251Z,7.05
2022-09-15T20:24:36.096Z,6.22
2022-09-15T20:27:03.001Z,7.57
2022-09-15T20:29:30.157Z,8.10
2022-09-15T20:31:57.287Z,7.07
2022-09-15T20:34:24.189Z,7.07
2022-09-15T20:36:51.032Z,7.97
2022-09-15T20:39:22.186Z,7.25
2022-09-15T20:41:49.125Z,8.43
2022-09-15T20:44:16.477Z,7.43
2022-09-15T20:46:43.596Z,7.45
2022-09-15T20:49:12.736Z,7.53
2022-09-15T20:51:39.710Z,7.00
2022-09-15T20:54:06.840Z,8.15
2022-09-15T20:56:35.546Z,7.68
2022-09-15T20:59:04.032Z,8.27
2022-09-15T21:01:37.058Z,7.38
2022-09-15T21:04:08.863Z,7.90
2022-09-15T21:06:36.786Z,7.03
2022-09-15T21:09:05.433Z,7.07
2022-09-15T21:11:33.169Z,9.48
2022-09-15T21:14:00.853Z,7.22
2022-09-15T21:16:28.953Z,8.02
2022-09-15T21:18:58.202Z,6.93
2022-09-15T21:21:30.264Z,7.93
2022-09-15T21:24:04.072Z,8.80
2022-09-15T21:26:57.212Z,6.78
2022-09-15T21:29:43.392Z,8.05
2022-09-15T21:32:10.364Z,6.07
2022-09-15T21:34:37.287Z,6.43
2022-09-15T21:37:04.124Z,7.90
2022-09-15T21:39:31.224Z,7.05
2022-09-15T21:41:58.085Z,8.48
2022-09-15T21:44:25.096Z,7.45
2022-09-15T21:46:52.727Z,8.13
2022-09-15T21:49:20.162Z,9.00
2022-09-15T21:51:47.495Z,7.82
2022-09-15T21:54:14.425Z,7.63
2022-09-15T21:56:41.435Z,7.78
2022-09-15T21:59:32.326Z,7.07
2022-09-15T22:01:59.244Z,7.65
2022-09-15T22:04:26.209Z,7.68
2022-09-15T22:06:53.287Z,7.80
2022-09-15T22:09:21.396Z,7.82
2022-09-15T22:11:49.076Z,7.18
2022-09-15T22:14:16.021Z,6.97
2022-09-15T22:16:43.425Z,7.47
2022-09-15T22:19:12.838Z,7.40
2022-09-15T22:21:42.241Z,6.60
2022-09-15T22:24:12.658Z,7.45
2022-09-15T22:26:41.470Z,8.23
2022-09-15T22:29:11.243Z,7.07
2022-09-15T22:31:38.480Z,7.13
2022-09-15T22:34:05.927Z,6.50
2022-09-15T22:36:33.242Z,7.53
2022-09-15T22:39:05.838Z,7.10
2022-09-15T22:41:35.813Z,6.70
2022-09-15T22:44:03.613Z,6.88
2022-09-15T22:46:30.629Z,6.93
2022-09-15T22:49:18.464Z,7.25
2022-09-15T22:51:45.844Z,6.53
2022-09-15T22:54:12.697Z,7.10
2022-09-15T22:56:39.585Z,6.78
2022-09-15T22:59:06.758Z,6.78
2022-09-15T23:01:33.766Z,7.35
2022-09-15T23:04:02.336Z,7.15
2022-09-15T23:06:32.233Z,5.55
2022-09-15T23:09:07.483Z,8.30
2022-09-15T23:11:35.828Z,6.72
2022-09-15T23:14:03.178Z,7.65
2022-09-15T23:16:30.791Z,8.38
2022-09-15T23:18:58.408Z,6.45
2022-09-15T23:21:25.768Z,8.25
2022-09-15T23:23:54.271Z,6.90
2022-09-15T23:26:23.826Z,7.72
2022-09-15T23:29:10.166Z,7.10
2022-09-15T23:31:37.208Z,7.25
2022-09-15T23:34:04.141Z,1.80
2022-09-15T23:36:31.198Z,6.50
2022-09-15T23:39:01.750Z,6.63
2022-09-15T23:41:28.580Z,8.25
2022-09-15T23:43:57.027Z,7.47
2022-09-15T23:46:23.915Z,7.70
2022-09-15T23:49:09.634Z,7.80
2022-09-15T23:51:36.456Z,8.10
2022-09-15T23:54:04.722Z,6.82
2022-09-15T23:56:32.406Z,7.80
2022-09-15T23:59:01.495Z,8.98
